sensor_id;sensor_type;location;lat;lon;timestamp;P1;durP1;ratioP1;P2;durP2;ratioP2
46266;SDS011;31998;48.798;15.066;2023-01-08T00:00:47;38.23;;;22.57;;
46266;SDS011;31998;48.798;15.066;2023-01-08T00:03:14;38.47;;;23.33;;
46266;SDS011;31998;48.798;15.066;2023-01-08T00:05:39;43.93;;;25.13;;
46266;SDS011;31998;48.798;15.066;2023-01-08T00:08:05;46.47;;;24.37;;
46266;SDS011;31998;48.798;15.066;2023-01-08T00:10:32;41.17;;;23.30;;
46266;SDS011;31998;48.798;15.066;2023-01-08T00:12:58;46.87;;;24.13;;
46266;SDS011;31998;48.798;15.066;2023-01-08T00:15:23;41.13;;;23.80;;
46266;SDS011;31998;48.798;15.066;2023-01-08T00:17:49;41.13;;;22.40;;
46266;SDS011;31998;48.798;15.066;2023-01-08T00:20:14;37.90;;;21.80;;
46266;SDS011;31998;48.798;15.066;2023-01-08T00:22:40;35.60;;;22.83;;
46266;SDS011;31998;48.798;15.066;2023-01-08T00:25:05;47.60;;;24.40;;
46266;SDS011;31998;48.798;15.066;2023-01-08T00:27:31;41.07;;;23.20;;
46266;SDS011;31998;48.798;15.066;2023-01-08T00:29:56;45.77;;;22.70;;
46266;SDS011;31998;48.798;15.066;2023-01-08T00:32:22;44.03;;;22.80;;
46266;SDS011;31998;48.798;15.066;2023-01-08T00:34:47;40.33;;;22.93;;
46266;SDS011;31998;48.798;15.066;2023-01-08T00:37:13;44.80;;;24.17;;
46266;SDS011;31998;48.798;15.066;2023-01-08T00:39:39;50.87;;;23.37;;
46266;SDS011;31998;48.798;15.066;2023-01-08T00:42:04;47.17;;;23.97;;
46266;SDS011;31998;48.798;15.066;2023-01-08T00:44:29;53.47;;;24.57;;
46266;SDS011;31998;48.798;15.066;2023-01-08T00:46:55;37.77;;;21.70;;
46266;SDS011;31998;48.798;15.066;2023-01-08T00:49:20;42.33;;;24.23;;
46266;SDS011;31998;48.798;15.066;2023-01-08T00:51:46;46.47;;;24.57;;
46266;SDS011;31998;48.798;15.066;2023-01-08T00:54:11;54.00;;;23.30;;
46266;SDS011;31998;48.798;15.066;2023-01-08T00:56:37;52.10;;;23.23;;
46266;SDS011;31998;48.798;15.066;2023-01-08T00:59:02;44.60;;;24.43;;
46266;SDS011;31998;48.798;15.066;2023-01-08T01:01:27;36.90;;;21.10;;
46266;SDS011;31998;48.798;15.066;2023-01-08T01:03:53;40.17;;;22.03;;
46266;SDS011;31998;48.798;15.066;2023-01-08T01:06:18;44.03;;;22.97;;
46266;SDS011;31998;48.798;15.066;2023-01-08T01:08:43;47.70;;;22.43;;
46266;SDS011;31998;48.798;15.066;2023-01-08T01:11:16;36.87;;;21.10;;
46266;SDS011;31998;48.798;15.066;2023-01-08T01:13:44;41.47;;;22.80;;
46266;SDS011;31998;48.798;15.066;2023-01-08T01:16:09;39.10;;;22.73;;
46266;SDS011;31998;48.798;15.066;2023-01-08T01:18:35;39.13;;;22.23;;
46266;SDS011;31998;48.798;15.066;2023-01-08T01:21:00;36.70;;;20.67;;
46266;SDS011;31998;48.798;15.066;2023-01-08T01:23:26;40.20;;;22.27;;
46266;SDS011;31998;48.798;15.066;2023-01-08T01:25:51;41.10;;;22.87;;
46266;SDS011;31998;48.798;15.066;2023-01-08T01:28:18;43.67;;;22.57;;
46266;SDS011;31998;48.798;15.066;2023-01-08T01:30:44;36.00;;;21.00;;
46266;SDS011;31998;48.798;15.066;2023-01-08T01:33:09;40.63;;;22.10;;
46266;SDS011;31998;48.798;15.066;2023-01-08T01:35:34;40.63;;;21.40;;
46266;SDS011;31998;48.798;15.066;2023-01-08T01:38:00;35.93;;;20.40;;
46266;SDS011;31998;48.798;15.066;2023-01-08T01:40:25;45.60;;;21.27;;
46266;SDS011;31998;48.798;15.066;2023-01-08T01:42:51;40.20;;;21.37;;
46266;SDS011;31998;48.798;15.066;2023-01-08T01:45:17;44.40;;;21.83;;
46266;SDS011;31998;48.798;15.066;2023-01-08T01:47:49;40.97;;;22.47;;
46266;SDS011;31998;48.798;15.066;2023-01-08T01:50:28;43.40;;;23.37;;
46266;SDS011;31998;48.798;15.066;2023-01-08T01:53:07;41.90;;;24.30;;
46266;SDS011;31998;48.798;15.066;2023-01-08T01:55:34;49.43;;;22.07;;
46266;SDS011;31998;48.798;15.066;2023-01-08T02:00:41;42.50;;;22.20;;
46266;SDS011;31998;48.798;15.066;2023-01-08T02:03:08;39.90;;;22.30;;
46266;SDS011;31998;48.798;15.066;2023-01-08T02:05:42;39.70;;;21.87;;
46266;SDS011;31998;48.798;15.066;2023-01-08T02:08:10;45.20;;;21.77;;
46266;SDS011;31998;48.798;15.066;2023-01-08T02:10:51;41.23;;;20.43;;
46266;SDS011;31998;48.798;15.066;2023-01-08T02:13:25;53.77;;;21.10;;
46266;SDS011;31998;48.798;15.066;2023-01-08T02:18:36;50.70;;;22.17;;
46266;SDS011;31998;48.798;15.066;2023-01-08T02:21:09;41.00;;;20.10;;
46266;SDS011;31998;48.798;15.066;2023-01-08T02:28:33;55.47;;;22.13;;
46266;SDS011;31998;48.798;15.066;2023-01-08T02:31:04;50.97;;;22.27;;
46266;SDS011;31998;48.798;15.066;2023-01-08T02:33:30;49.37;;;24.03;;
46266;SDS011;31998;48.798;15.066;2023-01-08T02:38:42;45.80;;;22.67;;
46266;SDS011;31998;48.798;15.066;2023-01-08T02:41:14;47.07;;;22.20;;
46266;SDS011;31998;48.798;15.066;2023-01-08T02:43:44;58.00;;;25.40;;
46266;SDS011;31998;48.798;15.066;2023-01-08T02:46:18;50.63;;;23.07;;
46266;SDS011;31998;48.798;15.066;2023-01-08T02:48:55;56.73;;;24.17;;
46266;SDS011;31998;48.798;15.066;2023-01-08T02:51:28;59.73;;;21.80;;
46266;SDS011;31998;48.798;15.066;2023-01-08T02:53:58;52.83;;;22.17;;
46266;SDS011;31998;48.798;15.066;2023-01-08T02:56:29;53.87;;;22.27;;
46266;SDS011;31998;48.798;15.066;2023-01-08T02:58:58;60.50;;;23.03;;
46266;SDS011;31998;48.798;15.066;2023-01-08T03:01:27;57.63;;;21.67;;
46266;SDS011;31998;48.798;15.066;2023-01-08T03:03:55;49.93;;;21.93;;
46266;SDS011;31998;48.798;15.066;2023-01-08T03:06:26;55.90;;;22.50;;
46266;SDS011;31998;48.798;15.066;2023-01-08T03:08:52;45.87;;;22.87;;
46266;SDS011;31998;48.798;15.066;2023-01-08T03:11:19;50.43;;;22.60;;
46266;SDS011;31998;48.798;15.066;2023-01-08T03:13:59;53.70;;;22.27;;
46266;SDS011;31998;48.798;15.066;2023-01-08T03:19:01;46.23;;;19.97;;
46266;SDS011;31998;48.798;15.066;2023-01-08T03:21:50;64.87;;;24.00;;
46266;SDS011;31998;48.798;15.066;2023-01-08T03:24:19;51.63;;;22.80;;
46266;SDS011;31998;48.798;15.066;2023-01-08T03:26:48;53.10;;;22.47;;
46266;SDS011;31998;48.798;15.066;2023-01-08T03:29:16;54.53;;;24.33;;
46266;SDS011;31998;48.798;15.066;2023-01-08T03:31:44;51.77;;;23.10;;
46266;SDS011;31998;48.798;15.066;2023-01-08T03:34:12;63.00;;;23.80;;
46266;SDS011;31998;48.798;15.066;2023-01-08T03:36:40;54.77;;;22.90;;
46266;SDS011;31998;48.798;15.066;2023-01-08T03:42:14;58.90;;;24.73;;
46266;SDS011;31998;48.798;15.066;2023-01-08T03:44:41;50.93;;;23.90;;
46266;SDS011;31998;48.798;15.066;2023-01-08T03:47:07;56.43;;;24.77;;
46266;SDS011;31998;48.798;15.066;2023-01-08T03:49:34;63.40;;;25.57;;
46266;SDS011;31998;48.798;15.066;2023-01-08T03:52:01;50.33;;;23.13;;
46266;SDS011;31998;48.798;15.066;2023-01-08T03:54:31;57.17;;;24.07;;
46266;SDS011;31998;48.798;15.066;2023-01-08T03:56:58;56.70;;;24.10;;
46266;SDS011;31998;48.798;15.066;2023-01-08T03:59:23;53.07;;;23.23;;
46266;SDS011;31998;48.798;15.066;2023-01-08T04:01:49;61.70;;;22.90;;
46266;SDS011;31998;48.798;15.066;2023-01-08T04:04:14;49.20;;;20.70;;
46266;SDS011;31998;48.798;15.066;2023-01-08T04:06:41;53.83;;;22.53;;
46266;SDS011;31998;48.798;15.066;2023-01-08T04:09:06;53.20;;;21.77;;
46266;SDS011;31998;48.798;15.066;2023-01-08T04:11:31;68.33;;;22.43;;
46266;SDS011;31998;48.798;15.066;2023-01-08T04:13:57;61.07;;;24.30;;
46266;SDS011;31998;48.798;15.066;2023-01-08T04:16:22;57.20;;;23.70;;
46266;SDS011;31998;48.798;15.066;2023-01-08T04:18:48;50.90;;;20.40;;
46266;SDS011;31998;48.798;15.066;2023-01-08T04:21:13;44.30;;;18.93;;
46266;SDS011;31998;48.798;15.066;2023-01-08T04:23:38;55.30;;;22.93;;
46266;SDS011;31998;48.798;15.066;2023-01-08T04:26:04;42.20;;;18.83;;
46266;SDS011;31998;48.798;15.066;2023-01-08T04:28:30;47.43;;;18.53;;
46266;SDS011;31998;48.798;15.066;2023-01-08T04:30:56;67.10;;;20.47;;
46266;SDS011;31998;48.798;15.066;2023-01-08T04:33:21;58.03;;;20.67;;
46266;SDS011;31998;48.798;15.066;2023-01-08T04:35:47;53.53;;;19.33;;
46266;SDS011;31998;48.798;15.066;2023-01-08T04:38:12;52.33;;;19.63;;
46266;SDS011;31998;48.798;15.066;2023-01-08T04:40:38;42.67;;;19.20;;
46266;SDS011;31998;48.798;15.066;2023-01-08T04:43:03;47.53;;;19.90;;
46266;SDS011;31998;48.798;15.066;2023-01-08T04:45:28;44.17;;;19.70;;
46266;SDS011;31998;48.798;15.066;2023-01-08T04:47:54;43.67;;;19.70;;
46266;SDS011;31998;48.798;15.066;2023-01-08T04:50:21;44.20;;;18.90;;
46266;SDS011;31998;48.798;15.066;2023-01-08T04:52:46;48.97;;;19.90;;
46266;SDS011;31998;48.798;15.066;2023-01-08T04:55:11;49.53;;;21.30;;
46266;SDS011;31998;48.798;15.066;2023-01-08T04:57:37;51.40;;;20.50;;
46266;SDS011;31998;48.798;15.066;2023-01-08T05:00:02;56.17;;;20.43;;
46266;SDS011;31998;48.798;15.066;2023-01-08T05:02:28;41.97;;;18.80;;
46266;SDS011;31998;48.798;15.066;2023-01-08T05:04:54;48.63;;;20.50;;
46266;SDS011;31998;48.798;15.066;2023-01-08T05:07:19;51.47;;;20.93;;
46266;SDS011;31998;48.798;15.066;2023-01-08T05:09:44;49.67;;;20.20;;
46266;SDS011;31998;48.798;15.066;2023-01-08T05:12:10;52.33;;;20.57;;
46266;SDS011;31998;48.798;15.066;2023-01-08T05:14:35;52.90;;;22.20;;
46266;SDS011;31998;48.798;15.066;2023-01-08T05:17:00;41.43;;;19.13;;
46266;SDS011;31998;48.798;15.066;2023-01-08T05:19:26;52.37;;;22.07;;
46266;SDS011;31998;48.798;15.066;2023-01-08T05:21:51;61.53;;;22.50;;
46266;SDS011;31998;48.798;15.066;2023-01-08T05:24:17;53.23;;;22.80;;
46266;SDS011;31998;48.798;15.066;2023-01-08T05:26:42;50.83;;;20.27;;
46266;SDS011;31998;48.798;15.066;2023-01-08T05:29:08;53.10;;;20.10;;
46266;SDS011;31998;48.798;15.066;2023-01-08T05:31:34;48.13;;;20.40;;
46266;SDS011;31998;48.798;15.066;2023-01-08T05:33:59;57.40;;;21.13;;
46266;SDS011;31998;48.798;15.066;2023-01-08T05:36:25;52.93;;;20.67;;
46266;SDS011;31998;48.798;15.066;2023-01-08T05:38:50;48.90;;;21.73;;
46266;SDS011;31998;48.798;15.066;2023-01-08T05:41:16;53.00;;;21.17;;
46266;SDS011;31998;48.798;15.066;2023-01-08T05:43:41;53.37;;;22.37;;
46266;SDS011;31998;48.798;15.066;2023-01-08T05:46:06;56.60;;;23.37;;
46266;SDS011;31998;48.798;15.066;2023-01-08T05:48:32;65.33;;;24.03;;
46266;SDS011;31998;48.798;15.066;2023-01-08T05:50:59;54.13;;;25.77;;
46266;SDS011;31998;48.798;15.066;2023-01-08T05:53:25;58.30;;;23.87;;
46266;SDS011;31998;48.798;15.066;2023-01-08T05:55:50;62.67;;;24.67;;
46266;SDS011;31998;48.798;15.066;2023-01-08T05:58:16;56.33;;;23.13;;
46266;SDS011;31998;48.798;15.066;2023-01-08T06:00:43;57.17;;;22.20;;
46266;SDS011;31998;48.798;15.066;2023-01-08T06:03:09;52.53;;;21.47;;
46266;SDS011;31998;48.798;15.066;2023-01-08T06:05:34;63.20;;;20.60;;
46266;SDS011;31998;48.798;15.066;2023-01-08T06:08:00;63.10;;;24.53;;
46266;SDS011;31998;48.798;15.066;2023-01-08T06:10:25;50.03;;;21.30;;
46266;SDS011;31998;48.798;15.066;2023-01-08T06:12:51;53.33;;;22.10;;
46266;SDS011;31998;48.798;15.066;2023-01-08T06:15:16;42.77;;;19.80;;
46266;SDS011;31998;48.798;15.066;2023-01-08T06:17:42;52.30;;;22.23;;
46266;SDS011;31998;48.798;15.066;2023-01-08T06:20:08;52.83;;;21.07;;
46266;SDS011;31998;48.798;15.066;2023-01-08T06:22:34;66.10;;;22.60;;
46266;SDS011;31998;48.798;15.066;2023-01-08T06:25:00;56.70;;;22.80;;
46266;SDS011;31998;48.798;15.066;2023-01-08T06:27:25;64.67;;;21.77;;
46266;SDS011;31998;48.798;15.066;2023-01-08T06:29:51;48.73;;;19.43;;
46266;SDS011;31998;48.798;15.066;2023-01-08T06:32:16;49.93;;;19.20;;
46266;SDS011;31998;48.798;15.066;2023-01-08T06:34:41;52.70;;;19.70;;
46266;SDS011;31998;48.798;15.066;2023-01-08T06:37:07;50.20;;;19.47;;
46266;SDS011;31998;48.798;15.066;2023-01-08T06:39:32;46.17;;;20.20;;
46266;SDS011;31998;48.798;15.066;2023-01-08T06:41:57;56.20;;;21.97;;
46266;SDS011;31998;48.798;15.066;2023-01-08T06:44:23;44.40;;;19.60;;
46266;SDS011;31998;48.798;15.066;2023-01-08T06:46:49;55.63;;;21.93;;
46266;SDS011;31998;48.798;15.066;2023-01-08T06:49:14;42.53;;;20.30;;
46266;SDS011;31998;48.798;15.066;2023-01-08T06:51:41;45.07;;;20.10;;
46266;SDS011;31998;48.798;15.066;2023-01-08T06:54:07;46.97;;;19.43;;
46266;SDS011;31998;48.798;15.066;2023-01-08T06:56:32;54.33;;;20.00;;
46266;SDS011;31998;48.798;15.066;2023-01-08T06:58:58;45.90;;;20.60;;
46266;SDS011;31998;48.798;15.066;2023-01-08T07:01:23;52.83;;;23.00;;
46266;SDS011;31998;48.798;15.066;2023-01-08T07:03:48;42.47;;;20.40;;
46266;SDS011;31998;48.798;15.066;2023-01-08T07:06:15;64.43;;;20.60;;
46266;SDS011;31998;48.798;15.066;2023-01-08T07:08:42;60.10;;;20.50;;
46266;SDS011;31998;48.798;15.066;2023-01-08T07:11:08;50.00;;;19.27;;
46266;SDS011;31998;48.798;15.066;2023-01-08T07:13:34;52.03;;;21.80;;
46266;SDS011;31998;48.798;15.066;2023-01-08T07:16:09;66.73;;;20.60;;
46266;SDS011;31998;48.798;15.066;2023-01-08T07:18:36;53.10;;;19.83;;
46266;SDS011;31998;48.798;15.066;2023-01-08T07:21:02;47.67;;;20.20;;
46266;SDS011;31998;48.798;15.066;2023-01-08T07:23:29;48.80;;;20.97;;
46266;SDS011;31998;48.798;15.066;2023-01-08T07:25:54;56.70;;;24.33;;
46266;SDS011;31998;48.798;15.066;2023-01-08T07:28:23;63.13;;;22.00;;
46266;SDS011;31998;48.798;15.066;2023-01-08T07:30:48;51.67;;;21.10;;
46266;SDS011;31998;48.798;15.066;2023-01-08T07:33:14;61.07;;;24.00;;
46266;SDS011;31998;48.798;15.066;2023-01-08T07:35:39;58.40;;;21.13;;
46266;SDS011;31998;48.798;15.066;2023-01-08T07:38:05;49.90;;;20.43;;
46266;SDS011;31998;48.798;15.066;2023-01-08T07:40:30;66.17;;;23.97;;
46266;SDS011;31998;48.798;15.066;2023-01-08T07:43:00;59.83;;;21.67;;
46266;SDS011;31998;48.798;15.066;2023-01-08T07:45:27;61.40;;;23.00;;
46266;SDS011;31998;48.798;15.066;2023-01-08T07:47:55;58.90;;;23.03;;
46266;SDS011;31998;48.798;15.066;2023-01-08T07:50:22;56.30;;;23.00;;
46266;SDS011;31998;48.798;15.066;2023-01-08T07:52:47;58.53;;;22.40;;
46266;SDS011;31998;48.798;15.066;2023-01-08T07:55:12;52.53;;;22.07;;
46266;SDS011;31998;48.798;15.066;2023-01-08T07:57:38;53.17;;;22.57;;
46266;SDS011;31998;48.798;15.066;2023-01-08T08:00:03;60.03;;;21.47;;
46266;SDS011;31998;48.798;15.066;2023-01-08T08:02:29;57.47;;;21.77;;
46266;SDS011;31998;48.798;15.066;2023-01-08T08:04:54;59.33;;;24.30;;
46266;SDS011;31998;48.798;15.066;2023-01-08T08:07:20;59.20;;;21.90;;
46266;SDS011;31998;48.798;15.066;2023-01-08T08:09:45;45.47;;;20.73;;
46266;SDS011;31998;48.798;15.066;2023-01-08T08:12:10;50.43;;;22.20;;
46266;SDS011;31998;48.798;15.066;2023-01-08T08:14:36;58.13;;;23.30;;
46266;SDS011;31998;48.798;15.066;2023-01-08T08:17:01;73.90;;;24.50;;
46266;SDS011;31998;48.798;15.066;2023-01-08T08:19:26;56.50;;;24.70;;
46266;SDS011;31998;48.798;15.066;2023-01-08T08:21:52;59.07;;;22.37;;
46266;SDS011;31998;48.798;15.066;2023-01-08T08:24:17;49.13;;;21.23;;
46266;SDS011;31998;48.798;15.066;2023-01-08T08:26:43;44.30;;;19.63;;
46266;SDS011;31998;48.798;15.066;2023-01-08T08:29:08;49.10;;;21.70;;
46266;SDS011;31998;48.798;15.066;2023-01-08T08:31:34;59.83;;;22.20;;
46266;SDS011;31998;48.798;15.066;2023-01-08T08:33:59;50.10;;;19.70;;
46266;SDS011;31998;48.798;15.066;2023-01-08T08:36:28;48.40;;;21.67;;
46266;SDS011;31998;48.798;15.066;2023-01-08T08:38:54;58.13;;;25.27;;
46266;SDS011;31998;48.798;15.066;2023-01-08T08:41:20;62.57;;;25.03;;
46266;SDS011;31998;48.798;15.066;2023-01-08T08:43:45;61.67;;;24.37;;
46266;SDS011;31998;48.798;15.066;2023-01-08T08:46:10;63.67;;;24.00;;
46266;SDS011;31998;48.798;15.066;2023-01-08T08:48:36;63.63;;;23.30;;
46266;SDS011;31998;48.798;15.066;2023-01-08T08:51:01;64.90;;;23.37;;
46266;SDS011;31998;48.798;15.066;2023-01-08T08:53:28;56.43;;;21.53;;
46266;SDS011;31998;48.798;15.066;2023-01-08T08:55:53;52.20;;;23.57;;
46266;SDS011;31998;48.798;15.066;2023-01-08T08:58:22;62.73;;;24.27;;
46266;SDS011;31998;48.798;15.066;2023-01-08T09:00:47;61.00;;;23.23;;
46266;SDS011;31998;48.798;15.066;2023-01-08T09:03:13;58.90;;;24.87;;
46266;SDS011;31998;48.798;15.066;2023-01-08T09:05:39;59.20;;;23.40;;
46266;SDS011;31998;48.798;15.066;2023-01-08T09:08:04;62.33;;;24.13;;
46266;SDS011;31998;48.798;15.066;2023-01-08T09:10:30;79.23;;;24.80;;
46266;SDS011;31998;48.798;15.066;2023-01-08T09:12:55;82.17;;;27.67;;
46266;SDS011;31998;48.798;15.066;2023-01-08T09:15:21;60.27;;;23.40;;
46266;SDS011;31998;48.798;15.066;2023-01-08T09:17:53;57.70;;;24.33;;
46266;SDS011;31998;48.798;15.066;2023-01-08T09:20:20;56.70;;;24.50;;
46266;SDS011;31998;48.798;15.066;2023-01-08T09:22:46;57.50;;;24.80;;
46266;SDS011;31998;48.798;15.066;2023-01-08T09:25:11;50.47;;;22.50;;
46266;SDS011;31998;48.798;15.066;2023-01-08T09:27:37;57.70;;;24.43;;
46266;SDS011;31998;48.798;15.066;2023-01-08T09:30:02;55.63;;;23.37;;
46266;SDS011;31998;48.798;15.066;2023-01-08T09:32:28;60.90;;;22.90;;
46266;SDS011;31998;48.798;15.066;2023-01-08T09:34:53;53.93;;;25.07;;
46266;SDS011;31998;48.798;15.066;2023-01-08T09:37:18;62.63;;;25.60;;
46266;SDS011;31998;48.798;15.066;2023-01-08T09:39:44;56.17;;;23.43;;
46266;SDS011;31998;48.798;15.066;2023-01-08T09:42:09;61.70;;;23.70;;
46266;SDS011;31998;48.798;15.066;2023-01-08T09:44:37;67.43;;;24.53;;
46266;SDS011;31998;48.798;15.066;2023-01-08T09:47:08;67.63;;;24.00;;
46266;SDS011;31998;48.798;15.066;2023-01-08T09:50:02;65.17;;;25.57;;
46266;SDS011;31998;48.798;15.066;2023-01-08T09:52:32;67.87;;;24.47;;
46266;SDS011;31998;48.798;15.066;2023-01-08T09:54:58;62.13;;;25.10;;
46266;SDS011;31998;48.798;15.066;2023-01-08T09:57:24;70.80;;;25.27;;
46266;SDS011;31998;48.798;15.066;2023-01-08T09:59:51;61.37;;;23.90;;
46266;SDS011;31998;48.798;15.066;2023-01-08T10:02:18;68.30;;;25.80;;
46266;SDS011;31998;48.798;15.066;2023-01-08T10:04:46;77.30;;;27.53;;
46266;SDS011;31998;48.798;15.066;2023-01-08T10:07:18;70.70;;;25.20;;
46266;SDS011;31998;48.798;15.066;2023-01-08T10:09:48;66.77;;;24.60;;
46266;SDS011;31998;48.798;15.066;2023-01-08T10:12:15;73.97;;;25.37;;
46266;SDS011;31998;48.798;15.066;2023-01-08T10:14:48;81.83;;;28.63;;
46266;SDS011;31998;48.798;15.066;2023-01-08T10:17:27;69.67;;;26.43;;
46266;SDS011;31998;48.798;15.066;2023-01-08T10:20:01;74.87;;;25.43;;
46266;SDS011;31998;48.798;15.066;2023-01-08T10:22:28;59.90;;;22.83;;
46266;SDS011;31998;48.798;15.066;2023-01-08T10:25:08;77.73;;;27.30;;
46266;SDS011;31998;48.798;15.066;2023-01-08T10:30:13;92.47;;;27.83;;
46266;SDS011;31998;48.798;15.066;2023-01-08T10:32:44;77.90;;;27.47;;
46266;SDS011;31998;48.798;15.066;2023-01-08T10:35:15;82.07;;;27.00;;
46266;SDS011;31998;48.798;15.066;2023-01-08T10:37:42;78.67;;;27.03;;
46266;SDS011;31998;48.798;15.066;2023-01-08T10:40:25;68.77;;;25.00;;
46266;SDS011;31998;48.798;15.066;2023-01-08T10:43:14;77.63;;;27.57;;
46266;SDS011;31998;48.798;15.066;2023-01-08T10:46:07;77.40;;;27.57;;
46266;SDS011;31998;48.798;15.066;2023-01-08T10:48:36;74.03;;;26.20;;
46266;SDS011;31998;48.798;15.066;2023-01-08T10:51:14;84.10;;;28.57;;
46266;SDS011;31998;48.798;15.066;2023-01-08T10:53:42;87.53;;;28.37;;
46266;SDS011;31998;48.798;15.066;2023-01-08T10:56:18;84.37;;;28.63;;
46266;SDS011;31998;48.798;15.066;2023-01-08T10:58:47;88.17;;;29.50;;
46266;SDS011;31998;48.798;15.066;2023-01-08T11:01:23;93.03;;;28.50;;
46266;SDS011;31998;48.798;15.066;2023-01-08T11:03:52;81.23;;;26.97;;
46266;SDS011;31998;48.798;15.066;2023-01-08T11:06:21;82.50;;;28.20;;
46266;SDS011;31998;48.798;15.066;2023-01-08T11:08:50;86.03;;;27.37;;
46266;SDS011;31998;48.798;15.066;2023-01-08T11:11:17;80.33;;;29.60;;
46266;SDS011;31998;48.798;15.066;2023-01-08T11:13:51;76.83;;;27.40;;
46266;SDS011;31998;48.798;15.066;2023-01-08T11:16:20;74.53;;;26.17;;
46266;SDS011;31998;48.798;15.066;2023-01-08T11:18:48;89.43;;;26.60;;
46266;SDS011;31998;48.798;15.066;2023-01-08T11:21:17;76.73;;;26.37;;
46266;SDS011;31998;48.798;15.066;2023-01-08T11:23:46;80.67;;;29.53;;
46266;SDS011;31998;48.798;15.066;2023-01-08T11:28:51;80.27;;;26.53;;
46266;SDS011;31998;48.798;15.066;2023-01-08T11:31:27;78.27;;;27.23;;
46266;SDS011;31998;48.798;15.066;2023-01-08T11:34:11;80.57;;;26.27;;
46266;SDS011;31998;48.798;15.066;2023-01-08T11:36:51;81.80;;;26.40;;
46266;SDS011;31998;48.798;15.066;2023-01-08T11:39:20;90.27;;;27.07;;
46266;SDS011;31998;48.798;15.066;2023-01-08T11:47:33;75.60;;;24.03;;
46266;SDS011;31998;48.798;15.066;2023-01-08T12:00:51;79.07;;;25.50;;
46266;SDS011;31998;48.798;15.066;2023-01-08T12:11:31;74.50;;;24.70;;
46266;SDS011;31998;48.798;15.066;2023-01-08T12:20:14;66.13;;;26.03;;
46266;SDS011;31998;48.798;15.066;2023-01-08T12:23:01;54.23;;;22.97;;
46266;SDS011;31998;48.798;15.066;2023-01-08T12:31:31;68.03;;;23.37;;
46266;SDS011;31998;48.798;15.066;2023-01-08T12:34:10;54.67;;;23.93;;
46266;SDS011;31998;48.798;15.066;2023-01-08T12:36:40;50.83;;;21.93;;
46266;SDS011;31998;48.798;15.066;2023-01-08T12:39:14;55.73;;;21.87;;
46266;SDS011;31998;48.798;15.066;2023-01-08T12:41:48;62.83;;;22.40;;
46266;SDS011;31998;48.798;15.066;2023-01-08T12:44:19;54.67;;;22.57;;
46266;SDS011;31998;48.798;15.066;2023-01-08T12:46:52;52.97;;;25.07;;
46266;SDS011;31998;48.798;15.066;2023-01-08T12:49:31;64.00;;;24.20;;
46266;SDS011;31998;48.798;15.066;2023-01-08T12:54:54;59.17;;;22.83;;
46266;SDS011;31998;48.798;15.066;2023-01-08T12:57:33;52.17;;;20.77;;
46266;SDS011;31998;48.798;15.066;2023-01-08T13:00:05;52.17;;;20.17;;
46266;SDS011;31998;48.798;15.066;2023-01-08T13:07:44;46.43;;;21.40;;
46266;SDS011;31998;48.798;15.066;2023-01-08T13:13:05;70.57;;;22.20;;
46266;SDS011;31998;48.798;15.066;2023-01-08T13:15:33;46.80;;;21.03;;
46266;SDS011;31998;48.798;15.066;2023-01-08T13:18:04;45.77;;;22.13;;
46266;SDS011;31998;48.798;15.066;2023-01-08T13:20:39;53.80;;;21.20;;
46266;SDS011;31998;48.798;15.066;2023-01-08T13:23:04;61.43;;;25.70;;
46266;SDS011;31998;48.798;15.066;2023-01-08T13:25:34;53.93;;;20.97;;
46266;SDS011;31998;48.798;15.066;2023-01-08T13:30:49;42.43;;;17.43;;
46266;SDS011;31998;48.798;15.066;2023-01-08T13:33:24;44.40;;;18.10;;
46266;SDS011;31998;48.798;15.066;2023-01-08T13:38:36;45.83;;;19.90;;
46266;SDS011;31998;48.798;15.066;2023-01-08T13:41:02;49.63;;;18.77;;
46266;SDS011;31998;48.798;15.066;2023-01-08T13:43:40;42.30;;;18.50;;
46266;SDS011;31998;48.798;15.066;2023-01-08T13:46:07;49.77;;;19.17;;
46266;SDS011;31998;48.798;15.066;2023-01-08T13:48:46;44.53;;;18.13;;
46266;SDS011;31998;48.798;15.066;2023-01-08T13:51:46;37.10;;;18.17;;
46266;SDS011;31998;48.798;15.066;2023-01-08T13:56:31;37.10;;;17.57;;
46266;SDS011;31998;48.798;15.066;2023-01-08T13:58:57;33.57;;;17.53;;
46266;SDS011;31998;48.798;15.066;2023-01-08T14:01:23;43.70;;;18.50;;
46266;SDS011;31998;48.798;15.066;2023-01-08T14:03:48;38.20;;;17.70;;
46266;SDS011;31998;48.798;15.066;2023-01-08T14:06:15;44.27;;;19.30;;
46266;SDS011;31998;48.798;15.066;2023-01-08T14:08:49;40.97;;;18.83;;
46266;SDS011;31998;48.798;15.066;2023-01-08T14:11:21;41.17;;;18.43;;
46266;SDS011;31998;48.798;15.066;2023-01-08T14:13:49;41.63;;;18.50;;
46266;SDS011;31998;48.798;15.066;2023-01-08T14:16:15;42.70;;;18.47;;
46266;SDS011;31998;48.798;15.066;2023-01-08T14:18:41;47.10;;;17.97;;
46266;SDS011;31998;48.798;15.066;2023-01-08T14:21:09;37.90;;;18.40;;
46266;SDS011;31998;48.798;15.066;2023-01-08T14:23:36;38.37;;;19.27;;
46266;SDS011;31998;48.798;15.066;2023-01-08T14:26:06;34.60;;;17.80;;
46266;SDS011;31998;48.798;15.066;2023-01-08T14:28:34;35.33;;;18.27;;
46266;SDS011;31998;48.798;15.066;2023-01-08T14:31:00;40.07;;;17.23;;
46266;SDS011;31998;48.798;15.066;2023-01-08T14:33:28;32.10;;;17.20;;
46266;SDS011;31998;48.798;15.066;2023-01-08T14:35:57;36.63;;;17.77;;
46266;SDS011;31998;48.798;15.066;2023-01-08T14:38:27;33.83;;;16.47;;
46266;SDS011;31998;48.798;15.066;2023-01-08T14:41:03;41.47;;;18.03;;
46266;SDS011;31998;48.798;15.066;2023-01-08T14:43:34;36.20;;;18.00;;
46266;SDS011;31998;48.798;15.066;2023-01-08T14:46:09;42.03;;;16.30;;
46266;SDS011;31998;48.798;15.066;2023-01-08T14:48:43;44.70;;;17.87;;
46266;SDS011;31998;48.798;15.066;2023-01-08T14:51:11;44.17;;;20.10;;
46266;SDS011;31998;48.798;15.066;2023-01-08T14:53:44;42.03;;;19.97;;
46266;SDS011;31998;48.798;15.066;2023-01-08T14:56:15;50.60;;;21.47;;
46266;SDS011;31998;48.798;15.066;2023-01-08T14:58:43;47.77;;;23.37;;
46266;SDS011;31998;48.798;15.066;2023-01-08T15:01:14;53.80;;;22.17;;
46266;SDS011;31998;48.798;15.066;2023-01-08T15:03:41;43.83;;;19.63;;
46266;SDS011;31998;48.798;15.066;2023-01-08T15:06:09;45.13;;;20.57;;
46266;SDS011;31998;48.798;15.066;2023-01-08T15:13:42;48.40;;;21.40;;
46266;SDS011;31998;48.798;15.066;2023-01-08T15:16:09;46.50;;;21.47;;
46266;SDS011;31998;48.798;15.066;2023-01-08T15:18:40;44.53;;;18.13;;
46266;SDS011;31998;48.798;15.066;2023-01-08T15:21:08;48.07;;;20.57;;
46266;SDS011;31998;48.798;15.066;2023-01-08T15:23:36;36.67;;;17.90;;
46266;SDS011;31998;48.798;15.066;2023-01-08T15:26:08;43.07;;;19.73;;
46266;SDS011;31998;48.798;15.066;2023-01-08T15:28:34;40.90;;;19.83;;
46266;SDS011;31998;48.798;15.066;2023-01-08T15:31:00;50.20;;;19.70;;
46266;SDS011;31998;48.798;15.066;2023-01-08T15:33:25;48.70;;;21.90;;
46266;SDS011;31998;48.798;15.066;2023-01-08T15:35:51;37.90;;;19.30;;
46266;SDS011;31998;48.798;15.066;2023-01-08T15:38:17;39.43;;;18.90;;